sensor_id;sensor_type;location;lat;lon;timestamp;P1;durP1;ratioP1;P2;durP2;ratioP2
20138;SDS011;10230;51.502;10.800;2023-08-07T00:00:39;4.07;;;0.90;;
20138;SDS011;10230;51.502;10.800;2023-08-07T00:03:05;1.23;;;0.70;;
20138;SDS011;10230;51.502;10.800;2023-08-07T00:05:30;1.42;;;0.77;;
20138;SDS011;10230;51.502;10.800;2023-08-07T00:07:56;1.02;;;0.90;;
20138;SDS011;10230;51.502;10.800;2023-08-07T00:10:22;1.27;;;0.73;;
20138;SDS011;10230;51.502;10.800;2023-08-07T00:12:49;1.92;;;0.80;;
20138;SDS011;10230;51.502;10.800;2023-08-07T00:15:15;1.17;;;0.88;;
20138;SDS011;10230;51.502;10.800;2023-08-07T00:17:41;2.33;;;0.80;;
20138;SDS011;10230;51.502;10.800;2023-08-07T00:20:07;0.80;;;0.70;;
20138;SDS011;10230;51.502;10.800;2023-08-07T00:22:33;3.25;;;0.75;;
20138;SDS011;10230;51.502;10.800;2023-08-07T00:24:59;1.00;;;0.70;;
20138;SDS011;10230;51.502;10.800;2023-08-07T00:27:26;0.80;;;0.77;;
20138;SDS011;10230;51.502;10.800;2023-08-07T00:29:52;0.77;;;0.63;;
20138;SDS011;10230;51.502;10.800;2023-08-07T00:32:18;0.70;;;0.68;;
20138;SDS011;10230;51.502;10.800;2023-08-07T00:34:44;0.88;;;0.75;;
20138;SDS011;10230;51.502;10.800;2023-08-07T00:37:10;0.93;;;0.93;;
20138;SDS011;10230;51.502;10.800;2023-08-07T00:39:36;1.13;;;0.85;;
20138;SDS011;10230;51.502;10.800;2023-08-07T00:42:02;0.90;;;0.82;;
20138;SDS011;10230;51.502;10.800;2023-08-07T00:44:28;1.77;;;1.10;;
20138;SDS011;10230;51.502;10.800;2023-08-07T00:46:54;1.90;;;1.52;;
20138;SDS011;10230;51.502;10.800;2023-08-07T00:49:20;1.85;;;1.48;;
20138;SDS011;10230;51.502;10.800;2023-08-07T00:51:46;3.70;;;1.40;;
20138;SDS011;10230;51.502;10.800;2023-08-07T00:54:14;2.05;;;1.50;;
20138;SDS011;10230;51.502;10.800;2023-08-07T00:56:43;1.90;;;1.58;;
20138;SDS011;10230;51.502;10.800;2023-08-07T00:59:08;1.65;;;1.30;;
20138;SDS011;10230;51.502;10.800;2023-08-07T01:01:35;2.67;;;1.42;;
20138;SDS011;10230;51.502;10.800;2023-08-07T01:04:01;3.38;;;1.85;;
20138;SDS011;10230;51.502;10.800;2023-08-07T01:06:27;3.28;;;2.00;;
20138;SDS011;10230;51.502;10.800;2023-08-07T01:08:52;2.35;;;2.15;;
20138;SDS011;10230;51.502;10.800;2023-08-07T01:11:20;3.30;;;2.05;;
20138;SDS011;10230;51.502;10.800;2023-08-07T01:14:08;3.22;;;2.40;;
20138;SDS011;10230;51.502;10.800;2023-08-07T01:16:54;1.98;;;1.35;;
20138;SDS011;10230;51.502;10.800;2023-08-07T01:19:26;3.75;;;2.05;;
20138;SDS011;10230;51.502;10.800;2023-08-07T01:22:08;2.20;;;1.80;;
20138;SDS011;10230;51.502;10.800;2023-08-07T01:24:39;3.90;;;1.90;;
20138;SDS011;10230;51.502;10.800;2023-08-07T01:35:42;0.80;;;0.80;;
20138;SDS011;10230;51.502;10.800;2023-08-07T01:38:09;1.20;;;1.10;;
20138;SDS011;10230;51.502;10.800;2023-08-07T01:40:36;1.05;;;0.82;;
20138;SDS011;10230;51.502;10.800;2023-08-07T01:43:03;0.82;;;0.70;;
20138;SDS011;10230;51.502;10.800;2023-08-07T01:45:29;0.90;;;0.70;;
20138;SDS011;10230;51.502;10.800;2023-08-07T01:47:55;1.33;;;0.80;;
20138;SDS011;10230;51.502;10.800;2023-08-07T01:50:21;1.20;;;0.70;;
20138;SDS011;10230;51.502;10.800;2023-08-07T01:52:48;1.63;;;0.65;;
20138;SDS011;10230;51.502;10.800;2023-08-07T01:55:15;1.20;;;0.50;;
20138;SDS011;10230;51.502;10.800;2023-08-07T01:57:41;2.67;;;0.63;;
20138;SDS011;10230;51.502;10.800;2023-08-07T02:00:07;0.70;;;0.60;;
20138;SDS011;10230;51.502;10.800;2023-08-07T02:02:33;0.95;;;0.63;;
20138;SDS011;10230;51.502;10.800;2023-08-07T02:04:59;0.70;;;0.50;;
20138;SDS011;10230;51.502;10.800;2023-08-07T02:07:25;1.67;;;0.60;;
20138;SDS011;10230;51.502;10.800;2023-08-07T02:09:51;2.00;;;0.60;;
20138;SDS011;10230;51.502;10.800;2023-08-07T02:12:16;1.02;;;0.60;;
20138;SDS011;10230;51.502;10.800;2023-08-07T02:14:42;1.10;;;0.90;;
20138;SDS011;10230;51.502;10.800;2023-08-07T02:17:08;1.08;;;0.82;;
20138;SDS011;10230;51.502;10.800;2023-08-07T02:19:34;2.28;;;0.88;;
20138;SDS011;10230;51.502;10.800;2023-08-07T02:22:00;2.90;;;0.90;;
20138;SDS011;10230;51.502;10.800;2023-08-07T02:24:26;2.15;;;0.98;;
20138;SDS011;10230;51.502;10.800;2023-08-07T02:26:52;1.33;;;0.80;;
20138;SDS011;10230;51.502;10.800;2023-08-07T02:29:18;0.90;;;0.85;;
20138;SDS011;10230;51.502;10.800;2023-08-07T02:31:44;0.93;;;0.82;;
20138;SDS011;10230;51.502;10.800;2023-08-07T02:34:09;1.70;;;1.10;;
20138;SDS011;10230;51.502;10.800;2023-08-07T02:36:35;1.95;;;1.38;;
20138;SDS011;10230;51.502;10.800;2023-08-07T02:39:01;2.87;;;1.30;;
20138;SDS011;10230;51.502;10.800;2023-08-07T02:41:27;2.40;;;1.40;;
20138;SDS011;10230;51.502;10.800;2023-08-07T02:43:53;4.07;;;1.55;;
20138;SDS011;10230;51.502;10.800;2023-08-07T02:46:19;5.30;;;1.60;;
20138;SDS011;10230;51.502;10.800;2023-08-07T02:48:44;2.00;;;1.30;;
20138;SDS011;10230;51.502;10.800;2023-08-07T02:51:10;4.35;;;1.35;;
20138;SDS011;10230;51.502;10.800;2023-08-07T02:53:36;2.75;;;1.38;;
20138;SDS011;10230;51.502;10.800;2023-08-07T02:56:02;4.65;;;2.40;;
20138;SDS011;10230;51.502;10.800;2023-08-07T02:58:28;2.45;;;1.58;;
20138;SDS011;10230;51.502;10.800;2023-08-07T03:00:54;2.97;;;1.48;;
20138;SDS011;10230;51.502;10.800;2023-08-07T03:03:21;2.83;;;1.80;;
20138;SDS011;10230;51.502;10.800;2023-08-07T03:05:47;5.35;;;1.55;;
20138;SDS011;10230;51.502;10.800;2023-08-07T03:08:14;4.07;;;1.75;;
20138;SDS011;10230;51.502;10.800;2023-08-07T03:10:40;2.97;;;1.90;;
20138;SDS011;10230;51.502;10.800;2023-08-07T03:13:06;1.88;;;1.35;;
20138;SDS011;10230;51.502;10.800;2023-08-07T03:15:32;5.88;;;1.73;;
20138;SDS011;10230;51.502;10.800;2023-08-07T03:17:57;2.58;;;1.83;;
20138;SDS011;10230;51.502;10.800;2023-08-07T03:20:23;2.60;;;2.05;;
20138;SDS011;10230;51.502;10.800;2023-08-07T03:22:49;2.53;;;1.70;;
20138;SDS011;10230;51.502;10.800;2023-08-07T03:25:15;4.03;;;2.13;;
20138;SDS011;10230;51.502;10.800;2023-08-07T03:27:41;2.88;;;1.55;;
20138;SDS011;10230;51.502;10.800;2023-08-07T03:30:07;3.20;;;1.77;;
20138;SDS011;10230;51.502;10.800;2023-08-07T03:32:33;4.20;;;1.55;;
20138;SDS011;10230;51.502;10.800;2023-08-07T03:34:58;5.95;;;1.58;;
20138;SDS011;10230;51.502;10.800;2023-08-07T03:37:24;1.60;;;1.40;;
20138;SDS011;10230;51.502;10.800;2023-08-07T03:39:49;4.70;;;1.70;;
20138;SDS011;10230;51.502;10.800;2023-08-07T03:42:15;1.83;;;1.30;;
20138;SDS011;10230;51.502;10.800;2023-08-07T03:44:41;2.53;;;1.67;;
20138;SDS011;10230;51.502;10.800;2023-08-07T03:47:07;3.17;;;1.35;;
20138;SDS011;10230;51.502;10.800;2023-08-07T03:49:33;4.32;;;2.47;;
20138;SDS011;10230;51.502;10.800;2023-08-07T03:51:59;1.67;;;1.20;;
20138;SDS011;10230;51.502;10.800;2023-08-07T03:54:25;1.63;;;1.02;;
20138;SDS011;10230;51.502;10.800;2023-08-07T03:56:51;2.42;;;1.45;;
20138;SDS011;10230;51.502;10.800;2023-08-07T03:59:18;3.08;;;1.70;;
20138;SDS011;10230;51.502;10.800;2023-08-07T04:01:44;2.70;;;1.27;;
20138;SDS011;10230;51.502;10.800;2023-08-07T04:04:09;1.63;;;1.17;;
20138;SDS011;10230;51.502;10.800;2023-08-07T04:06:35;2.15;;;1.10;;
20138;SDS011;10230;51.502;10.800;2023-08-07T04:09:01;2.80;;;1.30;;
20138;SDS011;10230;51.502;10.800;2023-08-07T04:11:28;3.22;;;1.10;;
20138;SDS011;10230;51.502;10.800;2023-08-07T04:13:54;2.90;;;1.40;;
20138;SDS011;10230;51.502;10.800;2023-08-07T04:16:20;2.77;;;0.97;;
20138;SDS011;10230;51.502;10.800;2023-08-07T04:18:46;2.42;;;1.08;;
20138;SDS011;10230;51.502;10.800;2023-08-07T04:21:12;1.58;;;1.02;;
20138;SDS011;10230;51.502;10.800;2023-08-07T04:23:38;1.98;;;0.93;;
20138;SDS011;10230;51.502;10.800;2023-08-07T04:26:03;1.95;;;1.02;;
20138;SDS011;10230;51.502;10.800;2023-08-07T04:28:29;0.90;;;0.80;;
20138;SDS011;10230;51.502;10.800;2023-08-07T04:30:55;1.33;;;1.20;;
20138;SDS011;10230;51.502;10.800;2023-08-07T04:33:21;2.78;;;1.20;;
20138;SDS011;10230;51.502;10.800;2023-08-07T04:35:47;1.57;;;1.20;;
20138;SDS011;10230;51.502;10.800;2023-08-07T04:38:16;2.03;;;0.70;;
20138;SDS011;10230;51.502;10.800;2023-08-07T04:40:45;1.83;;;1.00;;
20138;SDS011;10230;51.502;10.800;2023-08-07T04:43:12;1.40;;;1.05;;
20138;SDS011;10230;51.502;10.800;2023-08-07T04:45:41;1.63;;;0.90;;
20138;SDS011;10230;51.502;10.800;2023-08-07T04:48:09;1.98;;;0.95;;
20138;SDS011;10230;51.502;10.800;2023-08-07T04:50:36;4.70;;;1.05;;
20138;SDS011;10230;51.502;10.800;2023-08-07T04:53:02;3.97;;;1.27;;
20138;SDS011;10230;51.502;10.800;2023-08-07T04:55:29;0.82;;;0.77;;
20138;SDS011;10230;51.502;10.800;2023-08-07T04:57:55;1.83;;;0.77;;
20138;SDS011;10230;51.502;10.800;2023-08-07T05:00:21;2.33;;;0.80;;
20138;SDS011;10230;51.502;10.800;2023-08-07T05:02:47;2.22;;;0.80;;
20138;SDS011;10230;51.502;10.800;2023-08-07T05:05:13;1.27;;;0.73;;
20138;SDS011;10230;51.502;10.800;2023-08-07T05:07:40;1.67;;;1.00;;
20138;SDS011;10230;51.502;10.800;2023-08-07T05:10:06;1.25;;;1.00;;
20138;SDS011;10230;51.502;10.800;2023-08-07T05:12:32;1.25;;;0.90;;
20138;SDS011;10230;51.502;10.800;2023-08-07T05:14:58;1.02;;;0.90;;
20138;SDS011;10230;51.502;10.800;2023-08-07T05:17:24;1.23;;;0.95;;
20138;SDS011;10230;51.502;10.800;2023-08-07T05:19:50;1.00;;;0.68;;
20138;SDS011;10230;51.502;10.800;2023-08-07T05:22:15;0.88;;;0.70;;
20138;SDS011;10230;51.502;10.800;2023-08-07T05:24:41;0.82;;;0.50;;
20138;SDS011;10230;51.502;10.800;2023-08-07T05:27:08;1.50;;;0.55;;
20138;SDS011;10230;51.502;10.800;2023-08-07T05:29:35;2.40;;;0.73;;
20138;SDS011;10230;51.502;10.800;2023-08-07T05:32:13;0.88;;;0.43;;
20138;SDS011;10230;51.502;10.800;2023-08-07T05:34:40;1.30;;;0.50;;
20138;SDS011;10230;51.502;10.800;2023-08-07T05:37:06;1.38;;;0.52;;
20138;SDS011;10230;51.502;10.800;2023-08-07T05:39:32;0.68;;;0.50;;
20138;SDS011;10230;51.502;10.800;2023-08-07T05:41:59;2.10;;;0.43;;
20138;SDS011;10230;51.502;10.800;2023-08-07T05:44:24;0.85;;;0.68;;
20138;SDS011;10230;51.502;10.800;2023-08-07T05:46:51;1.45;;;0.90;;
20138;SDS011;10230;51.502;10.800;2023-08-07T05:49:16;2.85;;;1.70;;
20138;SDS011;10230;51.502;10.800;2023-08-07T05:51:42;1.20;;;0.82;;
20138;SDS011;10230;51.502;10.800;2023-08-07T05:54:08;0.73;;;0.57;;
20138;SDS011;10230;51.502;10.800;2023-08-07T05:56:34;0.73;;;0.60;;
20138;SDS011;10230;51.502;10.800;2023-08-07T05:59:00;1.10;;;0.68;;
20138;SDS011;10230;51.502;10.800;2023-08-07T06:01:26;0.40;;;0.40;;
20138;SDS011;10230;51.502;10.800;2023-08-07T06:03:56;1.10;;;0.70;;
20138;SDS011;10230;51.502;10.800;2023-08-07T06:06:22;1.25;;;0.82;;
20138;SDS011;10230;51.502;10.800;2023-08-07T06:08:48;1.48;;;0.95;;
20138;SDS011;10230;51.502;10.800;2023-08-07T06:11:14;1.10;;;0.82;;
20138;SDS011;10230;51.502;10.800;2023-08-07T06:13:40;0.65;;;0.50;;
20138;SDS011;10230;51.502;10.800;2023-08-07T06:16:06;1.08;;;0.70;;
20138;SDS011;10230;51.502;10.800;2023-08-07T06:18:32;0.85;;;0.80;;
20138;SDS011;10230;51.502;10.800;2023-08-07T06:20:59;3.63;;;0.80;;
20138;SDS011;10230;51.502;10.800;2023-08-07T06:23:25;1.48;;;0.95;;
20138;SDS011;10230;51.502;10.800;2023-08-07T06:25:51;2.10;;;0.82;;
20138;SDS011;10230;51.502;10.800;2023-08-07T06:28:17;1.73;;;0.73;;
20138;SDS011;10230;51.502;10.800;2023-08-07T06:30:43;1.67;;;1.10;;
20138;SDS011;10230;51.502;10.800;2023-08-07T06:33:09;1.30;;;0.80;;
20138;SDS011;10230;51.502;10.800;2023-08-07T06:35:38;6.80;;;0.82;;
20138;SDS011;10230;51.502;10.800;2023-08-07T06:38:05;1.52;;;1.05;;
20138;SDS011;10230;51.502;10.800;2023-08-07T06:40:31;1.42;;;0.95;;
20138;SDS011;10230;51.502;10.800;2023-08-07T06:42:57;1.33;;;1.00;;
20138;SDS011;10230;51.502;10.800;2023-08-07T06:45:23;1.42;;;1.33;;
20138;SDS011;10230;51.502;10.800;2023-08-07T06:47:49;1.90;;;0.90;;
20138;SDS011;10230;51.502;10.800;2023-08-07T06:50:15;0.75;;;0.60;;
20138;SDS011;10230;51.502;10.800;2023-08-07T06:52:41;1.13;;;0.77;;
20138;SDS011;10230;51.502;10.800;2023-08-07T06:55:07;1.70;;;1.30;;
20138;SDS011;10230;51.502;10.800;2023-08-07T06:57:33;4.35;;;1.85;;
20138;SDS011;10230;51.502;10.800;2023-08-07T07:00:00;0.80;;;0.80;;
20138;SDS011;10230;51.502;10.800;2023-08-07T07:02:26;0.80;;;0.80;;
20138;SDS011;10230;51.502;10.800;2023-08-07T07:04:52;0.88;;;0.80;;
20138;SDS011;10230;51.502;10.800;2023-08-07T07:07:18;0.88;;;0.77;;
20138;SDS011;10230;51.502;10.800;2023-08-07T07:09:44;2.25;;;0.82;;
20138;SDS011;10230;51.502;10.800;2023-08-07T07:12:10;0.73;;;0.73;;
20138;SDS011;10230;51.502;10.800;2023-08-07T07:14:36;2.65;;;1.27;;
20138;SDS011;10230;51.502;10.800;2023-08-07T07:17:02;1.38;;;1.25;;
20138;SDS011;10230;51.502;10.800;2023-08-07T07:19:28;2.60;;;1.10;;
20138;SDS011;10230;51.502;10.800;2023-08-07T07:21:54;1.88;;;1.20;;
20138;SDS011;10230;51.502;10.800;2023-08-07T07:24:20;2.40;;;1.40;;
20138;SDS011;10230;51.502;10.800;2023-08-07T07:26:46;1.55;;;1.38;;
20138;SDS011;10230;51.502;10.800;2023-08-07T07:29:12;1.80;;;1.48;;
20138;SDS011;10230;51.502;10.800;2023-08-07T07:31:38;1.45;;;1.35;;
20138;SDS011;10230;51.502;10.800;2023-08-07T07:34:04;1.35;;;1.00;;
20138;SDS011;10230;51.502;10.800;2023-08-07T07:36:30;1.65;;;1.15;;
20138;SDS011;10230;51.502;10.800;2023-08-07T07:38:56;2.47;;;1.17;;
20138;SDS011;10230;51.502;10.800;2023-08-07T07:41:22;1.75;;;1.10;;
20138;SDS011;10230;51.502;10.800;2023-08-07T07:43:49;1.65;;;1.00;;
20138;SDS011;10230;51.502;10.800;2023-08-07T07:46:15;2.08;;;1.00;;
20138;SDS011;10230;51.502;10.800;2023-08-07T07:48:41;2.15;;;1.63;;
20138;SDS011;10230;51.502;10.800;2023-08-07T07:51:07;2.60;;;1.90;;
20138;SDS011;10230;51.502;10.800;2023-08-07T07:53:33;1.35;;;0.98;;
20138;SDS011;10230;51.502;10.800;2023-08-07T07:55:59;1.45;;;1.10;;
20138;SDS011;10230;51.502;10.800;2023-08-07T07:58:26;2.53;;;1.00;;
20138;SDS011;10230;51.502;10.800;2023-08-07T08:00:52;1.92;;;0.93;;
20138;SDS011;10230;51.502;10.800;2023-08-07T08:03:19;2.38;;;0.90;;
20138;SDS011;10230;51.502;10.800;2023-08-07T08:05:48;1.20;;;0.82;;
20138;SDS011;10230;51.502;10.800;2023-08-07T08:08:14;2.25;;;0.65;;
20138;SDS011;10230;51.502;10.800;2023-08-07T08:10:40;1.13;;;0.70;;
20138;SDS011;10230;51.502;10.800;2023-08-07T08:13:10;1.27;;;0.40;;
20138;SDS011;10230;51.502;10.800;2023-08-07T08:15:36;2.50;;;0.68;;
20138;SDS011;10230;51.502;10.800;2023-08-07T08:18:02;2.45;;;0.30;;
20138;SDS011;10230;51.502;10.800;2023-08-07T08:20:28;1.23;;;0.40;;
20138;SDS011;10230;51.502;10.800;2023-08-07T08:22:56;1.27;;;0.70;;
20138;SDS011;10230;51.502;10.800;2023-08-07T08:25:22;0.60;;;0.50;;
20138;SDS011;10230;51.502;10.800;2023-08-07T08:27:48;0.63;;;0.52;;
20138;SDS011;10230;51.502;10.800;2023-08-07T08:30:16;1.15;;;0.80;;
20138;SDS011;10230;51.502;10.800;2023-08-07T08:32:42;0.95;;;0.80;;
20138;SDS011;10230;51.502;10.800;2023-08-07T08:35:09;0.93;;;0.60;;
20138;SDS011;10230;51.502;10.800;2023-08-07T08:37:35;0.52;;;0.50;;
20138;SDS011;10230;51.502;10.800;2023-08-07T08:40:01;1.27;;;0.60;;
20138;SDS011;10230;51.502;10.800;2023-08-07T08:42:27;0.57;;;0.45;;
20138;SDS011;10230;51.502;10.800;2023-08-07T08:44:54;0.70;;;0.70;;
20138;SDS011;10230;51.502;10.800;2023-08-07T08:47:21;1.08;;;0.63;;
20138;SDS011;10230;51.502;10.800;2023-08-07T08:49:51;1.35;;;0.60;;
20138;SDS011;10230;51.502;10.800;2023-08-07T08:52:20;1.02;;;0.85;;
20138;SDS011;10230;51.502;10.800;2023-08-07T08:54:47;1.75;;;0.75;;
20138;SDS011;10230;51.502;10.800;2023-08-07T08:57:13;2.15;;;0.80;;
20138;SDS011;10230;51.502;10.800;2023-08-07T08:59:42;1.65;;;0.60;;
20138;SDS011;10230;51.502;10.800;2023-08-07T09:02:08;0.50;;;0.50;;
20138;SDS011;10230;51.502;10.800;2023-08-07T09:04:35;0.93;;;0.85;;
20138;SDS011;10230;51.502;10.800;2023-08-07T09:07:02;0.95;;;0.57;;
20138;SDS011;10230;51.502;10.800;2023-08-07T09:09:28;0.68;;;0.55;;
20138;SDS011;10230;51.502;10.800;2023-08-07T09:11:54;0.93;;;0.68;;
20138;SDS011;10230;51.502;10.800;2023-08-07T09:14:24;1.75;;;0.93;;
20138;SDS011;10230;51.502;10.800;2023-08-07T09:16:52;1.10;;;0.80;;
20138;SDS011;10230;51.502;10.800;2023-08-07T09:19:22;1.08;;;0.80;;
20138;SDS011;10230;51.502;10.800;2023-08-07T09:21:48;1.00;;;0.80;;
20138;SDS011;10230;51.502;10.800;2023-08-07T09:24:14;1.00;;;0.80;;
20138;SDS011;10230;51.502;10.800;2023-08-07T09:26:43;1.10;;;0.60;;
20138;SDS011;10230;51.502;10.800;2023-08-07T09:29:09;0.93;;;0.82;;
20138;SDS011;10230;51.502;10.800;2023-08-07T09:31:36;1.25;;;0.70;;
20138;SDS011;10230;51.502;10.800;2023-08-07T09:34:03;1.08;;;0.80;;
20138;SDS011;10230;51.502;10.800;2023-08-07T09:36:30;2.97;;;1.38;;
20138;SDS011;10230;51.502;10.800;2023-08-07T09:39:00;2.33;;;0.77;;
20138;SDS011;10230;51.502;10.800;2023-08-07T09:41:27;1.63;;;0.65;;
20138;SDS011;10230;51.502;10.800;2023-08-07T09:43:54;0.77;;;0.77;;
20138;SDS011;10230;51.502;10.800;2023-08-07T09:46:20;2.47;;;0.80;;
20138;SDS011;10230;51.502;10.800;2023-08-07T09:48:47;0.55;;;0.50;;
20138;SDS011;10230;51.502;10.800;2023-08-07T09:51:13;0.98;;;0.70;;
20138;SDS011;10230;51.502;10.800;2023-08-07T09:53:39;1.35;;;0.68;;
20138;SDS011;10230;51.502;10.800;2023-08-07T09:56:05;0.93;;;0.60;;
20138;SDS011;10230;51.502;10.800;2023-08-07T09:58:32;0.90;;;0.40;;
20138;SDS011;10230;51.502;10.800;2023-08-07T10:01:04;0.68;;;0.60;;
20138;SDS011;10230;51.502;10.800;2023-08-07T10:03:32;1.35;;;0.60;;
20138;SDS011;10230;51.502;10.800;2023-08-07T10:05:58;0.40;;;0.30;;
20138;SDS011;10230;51.502;10.800;2023-08-07T10:08:24;0.45;;;0.43;;
20138;SDS011;10230;51.502;10.800;2023-08-07T10:10:51;2.00;;;0.47;;
20138;SDS011;10230;51.502;10.800;2023-08-07T10:13:17;1.80;;;0.45;;
20138;SDS011;10230;51.502;10.800;2023-08-07T10:15:43;0.40;;;0.40;;
20138;SDS011;10230;51.502;10.800;2023-08-07T10:18:10;0.75;;;0.40;;
20138;SDS011;10230;51.502;10.800;2023-08-07T10:20:36;1.25;;;0.70;;
20138;SDS011;10230;51.502;10.800;2023-08-07T10:23:04;0.35;;;0.35;;
20138;SDS011;10230;51.502;10.800;2023-08-07T10:25:32;1.17;;;1.02;;
20138;SDS011;10230;51.502;10.800;2023-08-07T10:27:59;1.60;;;0.98;;
20138;SDS011;10230;51.502;10.800;2023-08-07T10:30:26;0.60;;;0.60;;
20138;SDS011;10230;51.502;10.800;2023-08-07T10:32:53;1.48;;;0.40;;
20138;SDS011;10230;51.502;10.800;2023-08-07T10:35:28;0.85;;;0.57;;
20138;SDS011;10230;51.502;10.800;2023-08-07T10:37:55;3.03;;;0.65;;
20138;SDS011;10230;51.502;10.800;2023-08-07T10:40:31;1.80;;;0.50;;
20138;SDS011;10230;51.502;10.800;2023-08-07T10:43:11;1.63;;;0.40;;
20138;SDS011;10230;51.502;10.800;2023-08-07T10:45:38;1.02;;;0.40;;
20138;SDS011;10230;51.502;10.800;2023-08-07T10:50:34;0.75;;;0.50;;
20138;SDS011;10230;51.502;10.800;2023-08-07T10:53:03;0.75;;;0.45;;
20138;SDS011;10230;51.502;10.800;2023-08-07T10:55:47;1.08;;;0.50;;
20138;SDS011;10230;51.502;10.800;2023-08-07T10:58:20;1.33;;;0.50;;
20138;SDS011;10230;51.502;10.800;2023-08-07T11:00:48;1.90;;;0.70;;
20138;SDS011;10230;51.502;10.800;2023-08-07T11:03:26;1.05;;;0.30;;
20138;SDS011;10230;51.502;10.800;2023-08-07T11:05:53;0.90;;;0.57;;
20138;SDS011;10230;51.502;10.800;2023-08-07T11:08:23;0.75;;;0.40;;
20138;SDS011;10230;51.502;10.800;2023-08-07T11:10:53;0.50;;;0.32;;
20138;SDS011;10230;51.502;10.800;2023-08-07T11:13:20;1.15;;;0.30;;
20138;SDS011;10230;51.502;10.800;2023-08-07T11:15:46;1.40;;;0.20;;
20138;SDS011;10230;51.502;10.800;2023-08-07T11:18:12;0.73;;;0.30;;
20138;SDS011;10230;51.502;10.800;2023-08-07T11:20:38;0.50;;;0.20;;
20138;SDS011;10230;51.502;10.800;2023-08-07T11:23:05;0.47;;;0.40;;
20138;SDS011;10230;51.502;10.800;2023-08-07T11:25:31;0.93;;;0.40;;
20138;SDS011;10230;51.502;10.800;2023-08-07T11:27:57;0.93;;;0.40;;
20138;SDS011;10230;51.502;10.800;2023-08-07T11:30:24;0.75;;;0.35;;
20138;SDS011;10230;51.502;10.800;2023-08-07T11:32:50;0.50;;;0.30;;
20138;SDS011;10230;51.502;10.800;2023-08-07T11:35:16;1.45;;;0.43;;
20138;SDS011;10230;51.502;10.800;2023-08-07T11:37:48;3.25;;;0.90;;
20138;SDS011;10230;51.502;10.800;2023-08-07T11:40:15;1.17;;;0.40;;
20138;SDS011;10230;51.502;10.800;2023-08-07T11:42:41;0.95;;;0.50;;
20138;SDS011;10230;51.502;10.800;2023-08-07T11:45:08;0.68;;;0.25;;
20138;SDS011;10230;51.502;10.800;2023-08-07T11:47:34;0.40;;;0.30;;
20138;SDS011;10230;51.502;10.800;2023-08-07T11:50:01;1.27;;;0.50;;
20138;SDS011;10230;51.502;10.800;2023-08-07T11:52:27;2.53;;;0.75;;
20138;SDS011;10230;51.502;10.800;2023-08-07T11:54:53;2.47;;;0.70;;
20138;SDS011;10230;51.502;10.800;2023-08-07T11:57:22;1.05;;;0.47;;
20138;SDS011;10230;51.502;10.800;2023-08-07T11:59:51;1.10;;;0.90;;
20138;SDS011;10230;51.502;10.800;2023-08-07T12:02:21;0.85;;;0.40;;
20138;SDS011;10230;51.502;10.800;2023-08-07T12:04:48;1.58;;;0.50;;
20138;SDS011;10230;51.502;10.800;2023-08-07T12:07:17;1.23;;;0.70;;
20138;SDS011;10230;51.502;10.800;2023-08-07T12:09:44;1.00;;;0.60;;
20138;SDS011;10230;51.502;10.800;2023-08-07T12:12:11;0.95;;;0.63;;
20138;SDS011;10230;51.502;10.800;2023-08-07T12:14:38;2.05;;;0.57;;
20138;SDS011;10230;51.502;10.800;2023-08-07T12:17:05;3.40;;;0.85;;
20138;SDS011;10230;51.502;10.800;2023-08-07T12:19:40;1.70;;;0.88;;
20138;SDS011;10230;51.502;10.800;2023-08-07T12:22:09;1.55;;;0.70;;
20138;SDS011;10230;51.502;10.800;2023-08-07T12:24:35;2.72;;;0.80;;
20138;SDS011;10230;51.502;10.800;2023-08-07T12:27:03;3.38;;;1.10;;
20138;SDS011;10230;51.502;10.800;2023-08-07T12:29:29;2.60;;;0.70;;
20138;SDS011;10230;51.502;10.800;2023-08-07T12:31:55;0.65;;;0.50;;
20138;SDS011;10230;51.502;10.800;2023-08-07T12:34:23;2.47;;;0.50;;
20138;SDS011;10230;51.502;10.800;2023-08-07T12:36:50;1.15;;;0.82;;
20138;SDS011;10230;51.502;10.800;2023-08-07T12:39:16;0.95;;;0.60;;
20138;SDS011;10230;51.502;10.800;2023-08-07T12:41:42;2.67;;;0.90;;
20138;SDS011;10230;51.502;10.800;2023-08-07T12:44:08;1.42;;;0.60;;
20138;SDS011;10230;51.502;10.800;2023-08-07T12:46:34;2.58;;;0.38;;
20138;SDS011;10230;51.502;10.800;2023-08-07T12:49:03;0.82;;;0.60;;
20138;SDS011;10230;51.502;10.800;2023-08-07T12:51:29;2.40;;;1.50;;
20138;SDS011;10230;51.502;10.800;2023-08-07T12:53:55;1.80;;;0.85;;
20138;SDS011;10230;51.502;10.800;2023-08-07T12:56:21;2.05;;;0.65;;
20138;SDS011;10230;51.502;10.800;2023-08-07T12:58:47;2.08;;;0.60;;
20138;SDS011;10230;51.502;10.800;2023-08-07T13:01:13;1.35;;;0.50;;
20138;SDS011;10230;51.502;10.800;2023-08-07T13:03:39;1.20;;;0.40;;
20138;SDS011;10230;51.502;10.800;2023-08-07T13:06:05;0.93;;;0.60;;
20138;SDS011;10230;51.502;10.800;2023-08-07T13:08:33;1.95;;;0.60;;
20138;SDS011;10230;51.502;10.800;2023-08-07T13:11:00;1.60;;;0.70;;
20138;SDS011;10230;51.502;10.800;2023-08-07T13:13:26;2.60;;;0.60;;
20138;SDS011;10230;51.502;10.800;2023-08-07T13:15:53;2.53;;;0.50;;
20138;SDS011;10230;51.502;10.800;2023-08-07T13:18:19;1.85;;;1.08;;
20138;SDS011;10230;51.502;10.800;2023-08-07T13:20:45;0.55;;;0.35;;
20138;SDS011;10230;51.502;10.800;2023-08-07T13:23:11;1.38;;;0.60;;
20138;SDS011;10230;51.502;10.800;2023-08-07T13:25:37;2.45;;;0.90;;
20138;SDS011;10230;51.502;10.800;2023-08-07T13:28:03;0.98;;;0.82;;
20138;SDS011;10230;51.502;10.800;2023-08-07T13:30:34;1.85;;;0.80;;
20138;SDS011;10230;51.502;10.800;2023-08-07T13:33:00;1.23;;;0.70;;
20138;SDS011;10230;51.502;10.800;2023-08-07T13:35:26;0.60;;;0.30;;
20138;SDS011;10230;51.502;10.800;2023-08-07T13:37:52;1.08;;;0.57;;
20138;SDS011;10230;51.502;10.800;2023-08-07T13:40:19;1.73;;;0.70;;
20138;SDS011;10230;51.502;10.800;2023-08-07T13:42:46;3.10;;;1.25;;
20138;SDS011;10230;51.502;10.800;2023-08-07T13:45:12;1.45;;;0.60;;
20138;SDS011;10230;51.502;10.800;2023-08-07T13:47:38;2.47;;;1.20;;
20138;SDS011;10230;51.502;10.800;2023-08-07T13:50:05;2.35;;;1.02;;
20138;SDS011;10230;51.502;10.800;2023-08-07T13:52:32;1.05;;;0.55;;
20138;SDS011;10230;51.502;10.800;2023-08-07T13:54:58;1.88;;;0.65;;
20138;SDS011;10230;51.502;10.800;2023-08-07T13:57:25;1.55;;;0.75;;
20138;SDS011;10230;51.502;10.800;2023-08-07T13:59:51;1.17;;;1.00;;
20138;SDS011;10230;51.502;10.800;2023-08-07T14:02:19;2.25;;;0.70;;
20138;SDS011;10230;51.502;10.800;2023-08-07T14:04:45;1.45;;;0.60;;
20138;SDS011;10230;51.502;10.800;2023-08-07T14:07:11;3.55;;;0.80;;
20138;SDS011;10230;51.502;10.800;2023-08-07T14:09:38;1.15;;;0.88;;
20138;SDS011;10230;51.502;10.800;2023-08-07T14:12:04;3.45;;;1.25;;
20138;SDS011;10230;51.502;10.800;2023-08-07T14:14:30;2.83;;;0.90;;
20138;SDS011;10230;51.502;10.800;2023-08-07T14:16:56;2.90;;;0.82;;
20138;SDS011;10230;51.502;10.800;2023-08-07T14:19:25;3.55;;;0.88;;
20138;SDS011;10230;51.502;10.800;2023-08-07T14:21:51;2.38;;;0.90;;
20138;SDS011;10230;51.502;10.800;2023-08-07T14:24:17;2.67;;;0.73;;
20138;SDS011;10230;51.502;10.800;2023-08-07T14:26:44;2.80;;;1.02;;
20138;SDS011;10230;51.502;10.800;2023-08-07T14:29:10;2.33;;;0.93;;
20138;SDS011;10230;51.502;10.800;2023-08-07T14:31:36;2.15;;;1.08;;
20138;SDS011;10230;51.502;10.800;2023-08-07T14:34:02;1.90;;;0.90;;
20138;SDS011;10230;51.502;10.800;2023-08-07T14:36:28;2.75;;;1.00;;
20138;SDS011;10230;51.502;10.800;2023-08-07T14:38:54;4.40;;;1.02;;
20138;SDS011;10230;51.502;10.800;2023-08-07T14:41:20;2.58;;;1.02;;